Hellas Glory — 9HWN9 — position and weather

sailwx.info

Track history (hours):
 
Tides and Currents Weather Stations Pressure Air Temp Water Temp Dewpoint Dewpoint Depression Visibility Wind Speed Wind Dir Waves Ship Positions

Hellas Glory

Last reported at 2016-Dec-31 08:32 UTC. Time now 2017-Jan-23 04:31 UTC.
Position S 30°18' E 030°57'.
Warning: this ship's position is 22 days out of date.

Length 225 m; draft 7.6 m.

Type: Tanker. MMSI: 249636000.

Date/timePositionNaut miles runAvg speedWind from/ knotsBaromVisibWave heightAir tempDewpointWater temp
2016-Dec-31 08:32S 30°18' E 030°57'1616.0
2016-Dec-31 07:34S 30°03' E 031°04'1110.8
2016-Dec-31 06:33S 29°53' E 031°03'0 0.0
2016-Dec-30 12:34S 29°52' E 031°03'4 4.1
2016-Dec-30 11:34S 29°49' E 031°05'1 0.9
2016-Dec-30 10:34S 29°48' E 031°05'0 0.4
2016-Dec-30 09:31S 29°47' E 031°05'0 0.0
2016-Dec-30 08:31S 29°47' E 031°05'0 0.0
2016-Dec-30 07:31S 29°47' E 031°05'0 0.1
2016-Dec-30 06:31S 29°47' E 031°05'1 1.5
2016-Dec-30 05:33S 29°47' E 031°07'2 1.9
2016-Dec-30 04:33S 29°49' E 031°06'3 2.9
2016-Dec-30 03:33S 29°47' E 031°08'1 0.5
2016-Dec-30 02:33S 29°46' E 031°08'0 0.0
2016-Dec-30 01:33S 29°46' E 031°08'0 0.0
2016-Dec-30 00:33S 29°46' E 031°08'0 0.0
2016-Dec-29 23:33S 29°46' E 031°08'0 0.0
2016-Dec-29 22:33S 29°46' E 031°08'1 0.8
2016-Dec-29 21:33S 29°45' E 031°09'1111.1
2016-Dec-29 20:33S 29°46' E 031°22'1515.2
2016-Dec-29 19:34S 29°43' E 031°39'  
Track history (hours):
 
Tides and Currents Weather Stations Pressure Air Temp Water Temp Dewpoint Dewpoint Depression Visibility Wind Speed Wind Dir Waves Ship Positions

Hellas Glory

Last reported at 2016-Dec-31 08:32 UTC. Time now 2017-Jan-23 04:31 UTC.
Position S 30°18' E 030°57'.
Warning: this ship's position is 22 days out of date.

Length 225 m; draft 7.6 m.

Type: Tanker. MMSI: 249636000.

Date/timePositionNaut miles runAvg speedWind from/ knotsBaromVisibWave heightAir tempDewpointWater temp
2016-Dec-31 08:32S 30°18' E 030°57'1616.0
2016-Dec-31 07:34S 30°03' E 031°04'1110.8
2016-Dec-31 06:33S 29°53' E 031°03'0 0.0
2016-Dec-30 12:34S 29°52' E 031°03'4 4.1
2016-Dec-30 11:34S 29°49' E 031°05'1 0.9
2016-Dec-30 10:34S 29°48' E 031°05'0 0.4
2016-Dec-30 09:31S 29°47' E 031°05'0 0.0
2016-Dec-30 08:31S 29°47' E 031°05'0 0.0
2016-Dec-30 07:31S 29°47' E 031°05'0 0.1
2016-Dec-30 06:31S 29°47' E 031°05'1 1.5
2016-Dec-30 05:33S 29°47' E 031°07'2 1.9
2016-Dec-30 04:33S 29°49' E 031°06'3 2.9
2016-Dec-30 03:33S 29°47' E 031°08'1 0.5
2016-Dec-30 02:33S 29°46' E 031°08'0 0.0
2016-Dec-30 01:33S 29°46' E 031°08'0 0.0
2016-Dec-30 00:33S 29°46' E 031°08'0 0.0
2016-Dec-29 23:33S 29°46' E 031°08'0 0.0
2016-Dec-29 22:33S 29°46' E 031°08'1 0.8
2016-Dec-29 21:33S 29°45' E 031°09'1111.1
2016-Dec-29 20:33S 29°46' E 031°22'1515.2
2016-Dec-29 19:34S 29°43' E 031°39'  

Dump ship's entire track history